Time;durP1;ratioP1;P1;durP2;ratioP2;P2;SDS_P1;SDS_P2;PMS_P1;PMS_P2;Temp;Humidity;BMP_temperature;BMP_pressure;BME280_temperature;BME280_humidity;BME280_pressure;Samples;Min_cycle;Max_cycle;Signal;HPM_P1;HPM_P2
2023/04/24 00:02:16;;;;;;;12.10;7.22;;;10.20;99.90;;;;;;5101617;27;20066;-48
2023/04/24 00:04:44;;;;;;;7.95;6.22;;;10.30;99.90;;;;;;5082655;28;20515;-47
2023/04/24 00:07:11;;;;;;;9.15;6.45;;;10.30;99.90;;;;;;5101768;27;20112;-49
2023/04/24 00:09:37;;;;;;;9.80;5.93;;;10.30;99.90;;;;;;5101800;28;20325;-47
2023/04/24 00:12:05;;;;;;;9.07;6.30;;;10.20;99.90;;;;;;5101867;27;20074;-49
2023/04/24 00:14:31;;;;;;;7.80;6.68;;;10.40;99.90;;;;;;5101811;28;20413;-49
2023/04/24 00:16:57;;;;;;;6.68;5.38;;;10.30;99.90;;;;;;5101880;28;20050;-49
2023/04/24 00:19:23;;;;;;;6.82;4.15;;;10.20;99.90;;;;;;5101539;27;20032;-51
2023/04/24 00:21:49;;;;;;;7.78;3.15;;;10.20;99.90;;;;;;5102094;27;20122;-51
2023/04/24 00:24:16;;;;;;;4.18;2.30;;;10.20;99.90;;;;;;5102025;27;20119;-51
2023/04/24 00:26:42;;;;;;;4.65;2.25;;;10.20;99.90;;;;;;5101157;27;20040;-51
2023/04/24 00:29:08;;;;;;;5.63;2.67;;;10.10;99.90;;;;;;5101901;27;20058;-48
2023/04/24 00:31:36;;;;;;;5.50;2.38;;;9.90;99.90;;;;;;5101183;27;20048;-46
2023/04/24 00:34:02;;;;;;;4.75;2.10;;;9.90;99.90;;;;;;5102001;27;20452;-46
2023/04/24 00:36:28;;;;;;;3.67;2.10;;;10.00;99.90;;;;;;5101873;27;20115;-47
2023/04/24 00:38:55;;;;;;;3.97;2.67;;;10.80;99.90;;;;;;5101446;27;20039;-46
2023/04/24 00:41:21;;;;;;;4.38;2.83;;;9.80;99.90;;;;;;5101618;27;20063;-46
2023/04/24 00:43:47;;;;;;;5.28;2.95;;;9.80;99.90;;;;;;5101850;27;20245;-46
2023/04/24 00:46:14;;;;;;;4.70;2.80;;;9.90;99.90;;;;;;5100781;27;20043;-49
2023/04/24 00:48:40;;;;;;;5.15;3.28;;;9.90;99.90;;;;;;5101787;27;20047;-47
2023/04/24 00:51:06;;;;;;;5.80;2.80;;;9.60;99.90;;;;;;5100078;27;20512;-45
2023/04/24 00:53:32;;;;;;;5.50;2.83;;;9.80;99.90;;;;;;5101642;27;20040;-47
2023/04/24 00:55:59;;;;;;;4.30;3.03;;;9.90;99.90;;;;;;5100333;27;20047;-49
2023/04/24 00:58:26;;;;;;;4.88;3.00;;;9.80;99.90;;;;;;5100930;27;20515;-45
2023/04/24 01:00:55;;;;;;;5.22;2.88;;;9.80;99.90;;;;;;5082134;27;20040;-46
2023/04/24 01:03:24;;;;;;;5.28;3.15;;;10.00;99.90;;;;;;5100949;28;20043;-47
2023/04/24 01:05:50;;;;;;;4.75;3.13;;;9.90;99.90;;;;;;5100393;28;20098;-46
2023/04/24 01:08:16;;;;;;;4.20;2.90;;;9.80;99.90;;;;;;5082776;28;20075;-48
2023/04/24 01:10:44;;;;;;;5.43;3.17;;;10.10;99.90;;;;;;5100463;27;20039;-46
2023/04/24 01:13:10;;;;;;;5.25;3.10;;;9.80;99.90;;;;;;5100753;27;20048;-46
2023/04/24 01:15:36;;;;;;;3.80;2.67;;;9.70;99.90;;;;;;5100219;27;20043;-47
2023/04/24 01:18:02;;;;;;;4.07;2.60;;;9.90;99.90;;;;;;5100720;27;20043;-47
2023/04/24 01:20:29;;;;;;;4.20;2.60;;;10.50;99.90;;;;;;5099811;28;20039;-47
2023/04/24 01:22:57;;;;;;;4.32;2.67;;;9.70;99.90;;;;;;5100949;27;20111;-49
2023/04/24 01:25:25;;;;;;;4.10;2.80;;;9.60;99.90;;;;;;5099153;27;20051;-46
2023/04/24 01:27:52;;;;;;;4.25;2.78;;;9.60;99.90;;;;;;5083062;28;20058;-48
2023/04/24 01:30:18;;;;;;;3.95;2.65;;;9.70;99.90;;;;;;5099443;28;20052;-48
2023/04/24 01:32:45;;;;;;;4.47;2.80;;;9.60;99.90;;;;;;5100467;28;20055;-46
2023/04/24 01:35:11;;;;;;;3.65;2.35;;;9.80;99.90;;;;;;5081679;28;20461;-47
2023/04/24 01:37:39;;;;;;;3.78;2.65;;;9.50;99.90;;;;;;5101023;27;20310;-49
2023/04/24 01:40:06;;;;;;;6.10;2.47;;;9.70;99.90;;;;;;5101154;28;20105;-46
2023/04/24 01:42:32;;;;;;;5.38;2.70;;;9.60;99.90;;;;;;5101491;27;20047;-51
2023/04/24 01:44:59;;;;;;;5.57;2.97;;;9.60;99.90;;;;;;5082232;28;20050;-50
2023/04/24 01:47:26;;;;;;;5.15;2.72;;;9.50;99.90;;;;;;5101189;28;20051;-52
2023/04/24 01:49:52;;;;;;;5.10;2.72;;;10.10;99.90;;;;;;5100963;27;20040;-47
2023/04/24 01:52:18;;;;;;;4.43;2.97;;;9.40;99.90;;;;;;5100880;27;20043;-47
2023/04/24 01:54:44;;;;;;;3.72;2.70;;;9.70;99.90;;;;;;5100820;28;20078;-50
2023/04/24 01:57:11;;;;;;;5.43;3.20;;;8.20;99.90;;;;;;5100574;28;20156;-47
2023/04/24 01:59:36;;;;;;;6.25;2.90;;;9.50;99.90;;;;;;5082682;28;20050;-50
2023/04/24 02:02:03;;;;;;;5.75;3.05;;;9.40;99.90;;;;;;5100430;28;20043;-49
2023/04/24 02:04:29;;;;;;;4.88;3.35;;;9.40;99.90;;;;;;5081589;28;20116;-51
2023/04/24 02:06:55;;;;;;;4.75;3.63;;;9.60;99.90;;;;;;5101808;27;20519;-49
2023/04/24 02:09:21;;;;;;;6.30;3.65;;;9.40;99.90;;;;;;5103849;27;20044;-48
2023/04/24 02:11:46;;;;;;;4.75;3.58;;;9.60;99.90;;;;;;5104351;27;20143;-48
2023/04/24 02:14:12;;;;;;;5.50;4.00;;;9.60;99.90;;;;;;5104317;27;20271;-46
2023/04/24 02:16:38;;;;;;;6.35;4.25;;;9.60;99.90;;;;;;5104612;27;20043;-49
2023/04/24 02:19:04;;;;;;;8.55;4.43;;;9.70;99.90;;;;;;5104137;27;20099;-50
2023/04/24 02:21:30;;;;;;;8.15;4.28;;;9.40;99.90;;;;;;5104106;27;20039;-51
2023/04/24 02:23:57;;;;;;;7.35;4.97;;;9.70;99.90;;;;;;5103875;27;20040;-49
2023/04/24 02:26:23;;;;;;;9.65;5.13;;;9.50;99.90;;;;;;5104118;27;20050;-50
2023/04/24 02:28:49;;;;;;;6.00;5.10;;;9.60;99.90;;;;;;5103701;27;20048;-49
2023/04/24 02:31:14;;;;;;;6.25;5.15;;;9.70;99.90;;;;;;5103288;28;20047;-47
2023/04/24 02:33:40;;;;;;;8.95;5.80;;;9.70;99.90;;;;;;5103985;27;20352;-49
2023/04/24 02:36:06;;;;;;;6.45;5.75;;;9.70;99.90;;;;;;5103549;27;20048;-51
2023/04/24 02:38:32;;;;;;;7.47;6.20;;;9.70;99.90;;;;;;5105100;27;20039;-51
2023/04/24 02:40:58;;;;;;;7.50;6.55;;;9.60;99.90;;;;;;5103051;28;20054;-50
2023/04/24 02:43:24;;;;;;;9.27;6.85;;;9.50;99.90;;;;;;5103460;27;20035;-49
2023/04/24 02:45:50;;;;;;;9.63;7.43;;;9.50;99.90;;;;;;5104317;27;20043;-50
2023/04/24 02:48:16;;;;;;;8.52;7.47;;;9.60;99.90;;;;;;5104943;27;20040;-52
2023/04/24 02:50:43;;;;;;;9.63;7.22;;;9.40;99.90;;;;;;5103781;27;20075;-48
2023/04/24 02:53:09;;;;;;;12.85;7.72;;;9.80;99.90;;;;;;5103664;27;20048;-49
2023/04/24 02:55:35;;;;;;;11.23;9.27;;;9.60;99.90;;;;;;5103763;27;20128;-50
2023/04/24 02:58:01;;;;;;;11.40;9.02;;;9.50;99.90;;;;;;5104533;27;20042;-49
2023/04/24 03:00:26;;;;;;;10.27;8.80;;;9.60;99.90;;;;;;5103362;27;20040;-49
2023/04/24 03:02:53;;;;;;;10.68;9.10;;;9.60;99.90;;;;;;5104187;27;20460;-47
2023/04/24 03:05:19;;;;;;;12.05;9.75;;;9.60;99.90;;;;;;5102686;27;20047;-47
2023/04/24 03:07:45;;;;;;;11.75;9.48;;;9.50;99.90;;;;;;5104154;28;20054;-48
2023/04/24 03:10:11;;;;;;;11.60;9.40;;;9.70;99.90;;;;;;5102625;27;20062;-50
2023/04/24 03:12:36;;;;;;;11.73;10.50;;;9.70;99.90;;;;;;5085530;28;20488;-51
2023/04/24 03:15:02;;;;;;;11.85;10.10;;;9.70;99.90;;;;;;5103769;27;20040;-50
2023/04/24 03:17:28;;;;;;;13.73;11.10;;;9.70;99.90;;;;;;5103496;27;20081;-52
2023/04/24 03:19:54;;;;;;;12.60;10.77;;;9.70;99.90;;;;;;5102680;27;20043;-50
2023/04/24 03:22:20;;;;;;;13.75;11.50;;;9.70;99.90;;;;;;5102832;28;20130;-51
2023/04/24 03:24:45;;;;;;;14.02;11.05;;;9.70;99.90;;;;;;5085395;28;20045;-51
2023/04/24 03:27:11;;;;;;;14.43;12.85;;;9.80;99.90;;;;;;5103504;27;20046;-49
2023/04/24 03:29:37;;;;;;;15.95;12.85;;;9.70;99.90;;;;;;5103529;27;20129;-50
2023/04/24 03:32:03;;;;;;;15.52;12.55;;;9.70;99.90;;;;;;5103405;27;20069;-50
2023/04/24 03:34:29;;;;;;;14.52;13.00;;;9.80;99.90;;;;;;5102344;27;20380;-49
2023/04/24 03:36:54;;;;;;;17.40;14.20;;;9.60;99.90;;;;;;5102230;27;20039;-51
2023/04/24 03:39:20;;;;;;;17.13;14.52;;;9.80;99.90;;;;;;5102315;27;20106;-49
2023/04/24 03:41:46;;;;;;;18.27;14.77;;;9.90;99.90;;;;;;5102204;27;20611;-48
2023/04/24 03:44:11;;;;;;;18.65;13.90;;;9.70;99.90;;;;;;5102293;28;20043;-49
2023/04/24 03:46:37;;;;;;;17.35;15.30;;;9.60;99.90;;;;;;5084099;28;20046;-46
2023/04/24 03:49:03;;;;;;;20.55;15.57;;;9.80;99.90;;;;;;5102470;27;20081;-49
2023/04/24 03:51:30;;;;;;;16.98;14.90;;;10.50;99.90;;;;;;5101339;28;20043;-46
2023/04/24 03:53:55;;;;;;;17.30;14.82;;;9.70;99.90;;;;;;5068307;28;20282;-47
2023/04/24 03:56:21;;;;;;;19.30;16.30;;;9.70;99.90;;;;;;5101670;27;20483;-47
2023/04/24 03:58:47;;;;;;;21.40;16.25;;;9.70;99.90;;;;;;5084164;28;20039;-48
2023/04/24 04:01:13;;;;;;;18.48;15.52;;;9.80;99.90;;;;;;5101238;27;20046;-47
2023/04/24 04:03:38;;;;;;;20.23;16.40;;;9.80;99.90;;;;;;5102380;27;20360;-47
2023/04/24 04:06:04;;;;;;;18.95;15.80;;;9.70;99.90;;;;;;5101502;27;20146;-47
2023/04/24 04:08:30;;;;;;;18.33;15.70;;;9.80;99.90;;;;;;5101319;27;20051;-47
2023/04/24 04:10:56;;;;;;;22.33;17.83;;;9.70;99.90;;;;;;5101128;27;20077;-47
2023/04/24 04:13:22;;;;;;;22.45;17.52;;;9.80;99.90;;;;;;5101843;27;20575;-47
2023/04/24 04:15:47;;;;;;;22.48;17.23;;;9.70;99.90;;;;;;5083736;27;20044;-45
2023/04/24 04:18:13;;;;;;;20.98;16.33;;;9.60;99.90;;;;;;5102216;27;20047;-48
2023/04/24 04:20:39;;;;;;;18.42;15.00;;;9.90;99.90;;;;;;5101171;27;20311;-49
2023/04/24 04:23:04;;;;;;;15.13;12.75;;;9.80;99.90;;;;;;5102435;27;20130;-52
2023/04/24 04:25:30;;;;;;;15.88;8.75;;;9.80;99.90;;;;;;5103166;27;20169;-51
2023/04/24 04:27:57;;;;;;;9.93;7.80;;;9.90;99.90;;;;;;5102364;27;20126;-47
2023/04/24 04:30:23;;;;;;;9.30;7.47;;;9.90;99.90;;;;;;5101084;27;20084;-48
2023/04/24 04:32:50;;;;;;;10.57;8.40;;;9.60;99.90;;;;;;5103231;27;20047;-48
2023/04/24 04:35:15;;;;;;;9.18;5.60;;;10.00;99.90;;;;;;5101470;28;20044;-46
2023/04/24 04:37:41;;;;;;;7.97;4.85;;;9.90;99.90;;;;;;5102379;27;20043;-48
2023/04/24 04:40:09;;;;;;;7.03;4.05;;;9.90;99.90;;;;;;5102410;27;20035;-48
2023/04/24 04:42:35;;;;;;;9.45;4.30;;;9.80;99.90;;;;;;5102236;28;20112;-47
2023/04/24 04:45:00;;;;;;;7.38;4.90;;;10.00;99.90;;;;;;5102400;27;20509;-48
2023/04/24 04:47:28;;;;;;;7.22;4.30;;;9.80;99.90;;;;;;5101815;28;20050;-46
2023/04/24 04:49:54;;;;;;;5.25;3.47;;;10.00;99.90;;;;;;5100231;27;20120;-48
2023/04/24 04:52:24;;;;;;;5.78;3.33;;;9.80;99.90;;;;;;5094519;27;20043;-51
2023/04/24 04:54:50;;;;;;;6.18;3.85;;;9.70;99.90;;;;;;5094232;27;20058;-46
2023/04/24 04:57:16;;;;;;;4.55;2.40;;;9.90;99.90;;;;;;5092588;28;20043;-51
2023/04/24 04:59:42;;;;;;;4.30;2.05;;;9.80;99.90;;;;;;5092593;27;20035;-47
2023/04/24 05:02:08;;;;;;;3.60;1.85;;;9.60;99.90;;;;;;5092895;28;20050;-47
2023/04/24 05:04:33;;;;;;;3.45;2.20;;;9.60;99.90;;;;;;5092119;28;20138;-46
2023/04/24 05:06:59;;;;;;;4.40;2.40;;;9.70;99.90;;;;;;5092773;28;20584;-46
2023/04/24 05:09:27;;;;;;;6.57;2.55;;;9.70;99.90;;;;;;5093468;27;20134;-49
2023/04/24 05:11:53;;;;;;;4.82;2.50;;;9.80;99.90;;;;;;5093787;27;20047;-48
2023/04/24 05:14:18;;;;;;;4.20;2.50;;;9.70;99.90;;;;;;5093152;28;20058;-47
2023/04/24 05:16:44;;;;;;;4.75;3.10;;;9.80;99.90;;;;;;5092795;27;20859;-46
2023/04/24 05:19:11;;;;;;;4.45;2.65;;;9.60;99.90;;;;;;5091972;27;20170;-48
2023/04/24 05:21:39;;;;;;;4.25;2.58;;;9.70;99.90;;;;;;5096050;28;20054;-48
2023/04/24 05:24:05;;;;;;;4.82;2.72;;;9.70;99.90;;;;;;5075168;28;20040;-49
2023/04/24 05:26:31;;;;;;;6.38;2.70;;;9.70;99.90;;;;;;5092455;27;20075;-49
2023/04/24 05:28:56;;;;;;;5.75;3.22;;;9.80;99.90;;;;;;5092086;27;22824;-48
2023/04/24 05:31:22;;;;;;;5.50;2.85;;;9.70;99.90;;;;;;5093410;28;20579;-49
2023/04/24 05:33:48;;;;;;;6.22;2.80;;;9.80;99.90;;;;;;5091849;28;20040;-49
2023/04/24 05:36:14;;;;;;;4.47;2.88;;;9.50;99.90;;;;;;5093077;28;20040;-49
2023/04/24 05:38:40;;;;;;;4.28;2.67;;;9.80;99.90;;;;;;5093209;27;20169;-49
2023/04/24 05:41:06;;;;;;;5.10;2.90;;;9.80;99.90;;;;;;5091633;28;20039;-47
2023/04/24 05:43:32;;;;;;;5.43;2.90;;;9.70;99.90;;;;;;5092528;27;20031;-51
2023/04/24 05:45:57;;;;;;;4.75;2.70;;;9.80;99.90;;;;;;5092509;28;20576;-49
2023/04/24 05:48:23;;;;;;;5.50;3.40;;;9.60;99.90;;;;;;5072789;28;20044;-52
2023/04/24 05:50:49;;;;;;;5.10;2.70;;;9.70;99.90;;;;;;5076135;28;20043;-48
2023/04/24 05:53:15;;;;;;;6.55;3.67;;;9.70;99.90;;;;;;5093484;28;20118;-48
2023/04/24 05:55:41;;;;;;;6.07;4.00;;;9.50;99.90;;;;;;5093207;28;20135;-49
2023/04/24 05:58:07;;;;;;;7.88;4.68;;;9.60;99.90;;;;;;5093415;28;20067;-50
2023/04/24 06:00:33;;;;;;;7.38;4.20;;;9.70;99.90;;;;;;5091996;28;20146;-51
2023/04/24 06:03:00;;;;;;;7.60;3.63;;;9.60;99.90;;;;;;5091290;28;20057;-48
2023/04/24 06:05:26;;;;;;;6.97;3.50;;;9.60;99.90;;;;;;5092012;28;20629;-46
2023/04/24 06:07:52;;;;;;;6.60;3.78;;;9.60;99.90;;;;;;5092889;28;20066;-46
2023/04/24 06:10:18;;;;;;;11.55;4.15;;;9.70;99.90;;;;;;5092139;28;20043;-48
2023/04/24 06:12:43;;;;;;;10.15;4.22;;;9.80;99.90;;;;;;5091834;28;20040;-48
2023/04/24 06:15:10;;;;;;;8.07;4.13;;;9.60;99.90;;;;;;5094327;28;20054;-45
2023/04/24 06:17:36;;;;;;;9.80;4.38;;;9.80;99.90;;;;;;5092536;28;20051;-47
2023/04/24 06:20:05;;;;;;;9.35;4.50;;;9.60;99.90;;;;;;5092086;28;20040;-50
2023/04/24 06:22:31;;;;;;;7.20;4.30;;;9.50;99.90;;;;;;5093913;28;20051;-48
2023/04/24 06:24:57;;;;;;;6.45;4.05;;;9.80;99.90;;;;;;5091849;28;20108;-49
2023/04/24 06:27:22;;;;;;;8.07;3.72;;;11.30;99.90;;;;;;5092535;28;20047;-50
2023/04/24 06:29:54;;;;;;;5.85;3.50;;;9.80;99.90;;;;;;5092615;28;20055;-48
2023/04/24 06:32:23;;;;;;;6.72;3.67;;;9.60;99.90;;;;;;5090730;28;20389;-47
2023/04/24 06:34:49;;;;;;;6.20;2.90;;;9.70;99.90;;;;;;5072195;28;20048;-49
2023/04/24 06:37:16;;;;;;;6.22;3.55;;;9.60;99.90;;;;;;5073489;28;20055;-51
2023/04/24 06:39:42;;;;;;;7.63;3.72;;;9.80;99.90;;;;;;5092331;28;20075;-48
2023/04/24 06:42:09;;;;;;;7.05;3.33;;;9.80;99.90;;;;;;5091038;28;20143;-47
2023/04/24 06:44:40;;;;;;;6.35;2.95;;;9.70;99.90;;;;;;5090652;28;20042;-50
2023/04/24 06:47:09;;;;;;;5.37;2.70;;;9.80;99.90;;;;;;5091643;28;20570;-46
2023/04/24 06:49:36;;;;;;;4.47;2.40;;;9.70;99.90;;;;;;5091264;28;20051;-45
2023/04/24 06:52:03;;;;;;;7.22;2.55;;;9.80;99.90;;;;;;5094364;28;20135;-49
2023/04/24 06:54:29;;;;;;;7.38;2.25;;;9.70;99.90;;;;;;5094471;27;20274;-48
2023/04/24 06:56:57;;;;;;;5.53;2.42;;;9.90;99.90;;;;;;5093955;28;20653;-49
2023/04/24 06:59:26;;;;;;;8.32;2.60;;;9.60;99.90;;;;;;5093574;27;20354;-48
2023/04/24 07:01:52;;;;;;;11.93;2.00;;;9.80;99.90;;;;;;5094185;27;20376;-48
2023/04/24 07:04:18;;;;;;;3.97;2.03;;;9.90;99.90;;;;;;5077985;28;20047;-46
2023/04/24 07:06:46;;;;;;;8.57;2.42;;;9.60;99.90;;;;;;5094532;28;20070;-48
2023/04/24 07:09:13;;;;;;;5.03;2.20;;;9.60;99.90;;;;;;5095087;27;20578;-46
2023/04/24 07:11:40;;;;;;;5.97;1.90;;;9.70;99.90;;;;;;5094466;27;22803;-46
2023/04/24 07:14:06;;;;;;;5.43;1.88;;;9.50;99.90;;;;;;5096025;27;20039;-46
2023/04/24 07:16:32;;;;;;;5.53;2.20;;;9.60;99.90;;;;;;5096217;27;20036;-48
2023/04/24 07:18:58;;;;;;;6.80;1.70;;;9.70;99.90;;;;;;5096015;27;20050;-50
2023/04/24 07:21:25;;;;;;;4.60;1.65;;;9.60;99.90;;;;;;5098062;27;20152;-46
2023/04/24 07:23:51;;;;;;;5.40;1.65;;;11.70;99.90;;;;;;5097196;28;20058;-47
2023/04/24 07:26:17;;;;;;;6.90;1.50;;;9.40;99.90;;;;;;5095325;27;20135;-45
2023/04/24 07:28:43;;;;;;;3.15;1.35;;;9.50;99.90;;;;;;5095722;27;20153;-46
2023/04/24 07:31:10;;;;;;;9.32;2.35;;;9.50;99.90;;;;;;5076142;27;20383;-47
2023/04/24 07:33:36;;;;;;;7.72;2.47;;;9.30;99.90;;;;;;5096276;27;20468;-46
2023/04/24 07:36:02;;;;;;;8.13;3.47;;;9.60;99.90;;;;;;5095656;28;20050;-45
2023/04/24 07:38:29;;;;;;;9.38;4.30;;;9.50;99.90;;;;;;5095171;27;20508;-45
2023/04/24 07:40:55;;;;;;;14.57;5.60;;;9.60;99.90;;;;;;5095820;27;20442;-46
2023/04/24 07:43:21;;;;;;;10.80;6.15;;;9.60;99.90;;;;;;5094771;27;20100;-46
2023/04/24 07:45:47;;;;;;;17.23;7.80;;;9.40;99.90;;;;;;5096539;27;20049;-45
2023/04/24 07:48:16;;;;;;;14.55;9.02;;;9.50;99.90;;;;;;5094695;27;20142;-47
2023/04/24 07:50:42;;;;;;;16.83;10.32;;;9.20;99.90;;;;;;5095486;27;20104;-46
2023/04/24 07:53:08;;;;;;;17.15;10.93;;;9.20;99.90;;;;;;5095502;27;20078;-45
2023/04/24 07:55:33;;;;;;;19.40;11.60;;;9.30;99.90;;;;;;5076573;28;20151;-45
2023/04/24 07:57:59;;;;;;;23.40;11.30;;;9.30;99.90;;;;;;5094785;27;20072;-46
2023/04/24 08:00:25;;;;;;;16.90;9.98;;;9.10;99.90;;;;;;5094956;27;20452;-45
2023/04/24 08:02:51;;;;;;;19.13;10.60;;;9.20;99.90;;;;;;5094631;27;20763;-46
2023/04/24 08:05:17;;;;;;;21.58;12.25;;;9.00;99.90;;;;;;5093552;28;20044;-45
2023/04/24 08:07:42;;;;;;;18.98;11.45;;;9.30;99.90;;;;;;5075553;28;20521;-46
2023/04/24 08:10:11;;;;;;;21.83;12.27;;;9.60;99.90;;;;;;5093635;27;20134;-45
2023/04/24 08:12:37;;;;;;;17.70;11.38;;;9.40;99.90;;;;;;5094233;27;20054;-46
2023/04/24 08:15:04;;;;;;;16.27;11.00;;;9.20;99.90;;;;;;5095071;27;20138;-47
2023/04/24 08:17:30;;;;;;;15.65;10.77;;;9.10;99.90;;;;;;5094987;27;20051;-46
2023/04/24 08:20:01;;;;;;;17.92;10.10;;;9.00;99.90;;;;;;5094161;27;20127;-46
2023/04/24 08:22:27;;;;;;;18.00;11.18;;;10.70;99.90;;;;;;5078810;27;20445;-47
2023/04/24 08:24:53;;;;;;;15.40;10.30;;;10.60;99.90;;;;;;5095216;27;20047;-47
2023/04/24 08:27:19;;;;;;;16.83;10.27;;;9.40;99.90;;;;;;5094988;27;20138;-50
2023/04/24 08:29:45;;;;;;;16.42;10.57;;;9.10;99.90;;;;;;5076019;28;20128;-46
2023/04/24 08:32:11;;;;;;;19.50;10.77;;;9.00;99.90;;;;;;5094482;28;20065;-47
2023/04/24 08:34:37;;;;;;;18.55;10.50;;;9.20;99.90;;;;;;5094577;27;20116;-45
2023/04/24 08:37:03;;;;;;;16.63;10.63;;;9.10;99.90;;;;;;5095456;27;20059;-51
2023/04/24 08:39:28;;;;;;;15.75;9.85;;;9.10;99.90;;;;;;5095666;27;20044;-46
2023/04/24 08:41:55;;;;;;;19.45;11.63;;;9.10;99.90;;;;;;5094676;28;20050;-50
2023/04/24 08:44:21;;;;;;;16.23;10.65;;;9.20;99.90;;;;;;5093394;27;20039;-48
2023/04/24 08:46:51;;;;;;;17.17;10.85;;;9.00;99.90;;;;;;5095014;27;20047;-48
2023/04/24 08:49:17;;;;;;;13.73;10.60;;;8.90;99.90;;;;;;5095597;27;20059;-46
2023/04/24 08:51:44;;;;;;;21.73;10.85;;;9.20;99.90;;;;;;5095570;27;20138;-46
2023/04/24 08:54:13;;;;;;;16.88;11.35;;;9.00;99.90;;;;;;5094814;27;20044;-49
2023/04/24 08:56:40;;;;;;;20.73;11.00;;;9.20;99.90;;;;;;5093792;27;20571;-46
2023/04/24 08:59:06;;;;;;;15.73;9.48;;;9.10;99.90;;;;;;5094104;27;20365;-47
2023/04/24 09:01:35;;;;;;;15.70;9.25;;;9.10;99.90;;;;;;5076838;27;20036;-52
2023/04/24 09:04:03;;;;;;;14.95;9.77;;;9.00;99.90;;;;;;5093642;27;20040;-50
2023/04/24 09:06:30;;;;;;;16.05;7.00;;;9.10;99.90;;;;;;5092730;28;20142;-49
2023/04/24 09:09:00;;;;;;;12.75;7.07;;;9.20;99.90;;;;;;5092212;27;20462;-48
2023/04/24 09:11:27;;;;;;;14.23;7.40;;;9.30;99.90;;;;;;5074508;28;20517;-50
2023/04/24 09:13:54;;;;;;;13.40;6.80;;;9.40;99.90;;;;;;5073369;28;20104;-49
2023/04/24 09:16:20;;;;;;;13.40;6.43;;;9.40;99.90;;;;;;5073304;28;22019;-50
2023/04/24 09:18:46;;;;;;;13.50;6.00;;;9.50;99.90;;;;;;5093905;27;20062;-50
2023/04/24 09:21:12;;;;;;;12.27;6.05;;;9.30;99.90;;;;;;5057308;28;20349;-51
2023/04/24 09:23:39;;;;;;;13.55;6.93;;;9.50;99.90;;;;;;5074528;28;20047;-48
2023/04/24 09:26:05;;;;;;;15.00;7.18;;;9.50;99.90;;;;;;5074274;28;20609;-49
2023/04/24 09:28:34;;;;;;;14.10;6.70;;;9.40;99.90;;;;;;5093927;27;20046;-51
2023/04/24 09:31:17;;;;;;;16.30;5.90;;;9.40;99.90;;;;;;5092970;27;20476;-51
2023/04/24 09:34:07;;;;;;;14.05;6.30;;;9.20;99.90;;;;;;5072983;28;20508;-50
2023/04/24 09:36:52;;;;;;;15.07;6.10;;;9.20;99.90;;;;;;5074347;28;20047;-47
2023/04/24 09:39:21;;;;;;;13.38;5.72;;;9.30;99.90;;;;;;5092616;27;20996;-50
2023/04/24 09:41:50;;;;;;;13.85;5.05;;;9.30;99.90;;;;;;5091179;28;20073;-51
2023/04/24 09:44:20;;;;;;;15.40;5.22;;;9.30;99.90;;;;;;5074483;28;20043;-52
2023/04/24 09:46:56;;;;;;;9.30;4.47;;;9.40;99.90;;;;;;5075663;28;20047;-51
2023/04/24 09:49:24;;;;;;;11.40;5.15;;;9.30;99.90;;;;;;5091647;27;20480;-50
2023/04/24 09:51:50;;;;;;;15.98;3.70;;;9.50;99.90;;;;;;5095236;27;20047;-50
2023/04/24 09:54:20;;;;;;;9.32;3.30;;;9.80;99.90;;;;;;5093575;28;20461;-50
2023/04/24 09:56:49;;;;;;;8.35;3.08;;;9.80;99.90;;;;;;5093933;28;20047;-49
2023/04/24 09:59:16;;;;;;;10.15;3.05;;;9.90;99.90;;;;;;5092308;28;20073;-51
2023/04/24 10:01:44;;;;;;;10.65;3.22;;;9.90;99.90;;;;;;5091859;28;20142;-49
2023/04/24 10:04:39;;;;;;;11.95;3.47;;;10.10;99.90;;;;;;5073017;28;20082;-50
2023/04/24 10:07:06;;;;;;;11.75;3.00;;;10.10;99.90;;;;;;5073233;28;20068;-49
2023/04/24 10:09:33;;;;;;;16.52;3.72;;;10.20;99.90;;;;;;5092013;28;20058;-50
2023/04/24 10:12:01;;;;;;;17.02;3.75;;;10.20;99.90;;;;;;5093593;28;20047;-49
2023/04/24 10:14:27;;;;;;;15.48;4.20;;;10.20;99.90;;;;;;5074967;28;20043;-50
2023/04/24 10:16:54;;;;;;;15.85;3.53;;;10.10;99.90;;;;;;5091638;28;20105;-48
2023/04/24 10:19:20;;;;;;;8.30;2.70;;;10.20;99.90;;;;;;5072216;28;20040;-51
2023/04/24 10:21:46;;;;;;;14.45;2.90;;;10.30;99.90;;;;;;5092789;28;20039;-51
2023/04/24 10:24:17;;;;;;;8.38;2.33;;;10.30;99.90;;;;;;5093006;28;20036;-50
2023/04/24 10:26:45;;;;;;;9.77;2.72;;;10.30;99.90;;;;;;5093645;28;20075;-48
2023/04/24 10:29:12;;;;;;;10.23;2.97;;;10.20;99.90;;;;;;5096031;27;20047;-48
2023/04/24 10:31:39;;;;;;;9.13;1.90;;;10.30;99.90;;;;;;5095740;27;20043;-46
2023/04/24 10:34:06;;;;;;;11.85;2.17;;;11.00;99.90;;;;;;5095099;27;20040;-47
2023/04/24 10:36:34;;;;;;;7.45;2.17;;;10.20;99.90;;;;;;5095889;27;20050;-47
2023/04/24 10:39:02;;;;;;;10.15;2.22;;;10.10;99.90;;;;;;5096421;27;20043;-48
2023/04/24 10:41:30;;;;;;;9.10;2.35;;;10.00;99.90;;;;;;5077779;28;20035;-48
2023/04/24 10:44:06;;;;;;;9.88;2.10;;;10.20;99.90;;;;;;5095654;27;20036;-47
2023/04/24 10:46:32;;;;;;;11.75;2.72;;;10.30;99.90;;;;;;5097044;27;20039;-47
2023/04/24 10:48:58;;;;;;;9.65;2.42;;;10.30;99.90;;;;;;5094313;27;20449;-48
2023/04/24 10:51:42;;;;;;;7.32;2.00;;;10.30;99.90;;;;;;5092722;27;20394;-49
2023/04/24 10:54:40;;;;;;;11.82;2.97;;;10.40;99.90;;;;;;5093789;27;20076;-52
2023/04/24 10:57:21;;;;;;;6.78;1.73;;;10.20;99.90;;;;;;5094512;27;20687;-51
2023/04/24 11:00:09;;;;;;;9.20;2.23;;;10.20;99.90;;;;;;5062266;28;20047;-50
2023/04/24 11:02:40;;;;;;;8.10;2.00;;;10.20;99.90;;;;;;5076701;28;20135;-49
2023/04/24 11:05:06;;;;;;;7.32;1.67;;;10.40;99.90;;;;;;5095692;27;20116;-52
2023/04/24 11:08:11;;;;;;;7.68;1.88;;;10.30;99.90;;;;;;5095202;27;20047;-48
2023/04/24 11:11:00;;;;;;;9.35;1.90;;;10.30;99.90;;;;;;5095756;27;20515;-54
2023/04/24 11:13:48;;;;;;;9.73;2.10;;;10.30;99.90;;;;;;5056424;28;20048;-48
2023/04/24 11:16:21;;;;;;;7.55;2.22;;;10.20;99.90;;;;;;5077048;27;20059;-50
2023/04/24 11:18:53;;;;;;;7.10;1.60;;;10.20;99.90;;;;;;5095549;27;20043;-46
2023/04/24 11:21:20;;;;;;;11.02;2.03;;;10.30;99.90;;;;;;5094877;27;20070;-49
2023/04/24 11:23:46;;;;;;;10.60;2.00;;;10.40;99.90;;;;;;5096485;27;20055;-48
2023/04/24 11:26:22;;;;;;;9.88;1.70;;;10.30;99.90;;;;;;5096232;27;20051;-47
2023/04/24 11:28:49;;;;;;;11.27;2.30;;;10.40;99.90;;;;;;5095916;27;20321;-48
2023/04/24 11:31:34;;;;;;;8.80;1.80;;;10.50;99.90;;;;;;5095103;27;20047;-52
2023/04/24 11:34:10;;;;;;;8.20;1.98;;;10.50;99.90;;;;;;5058369;28;20143;-48
2023/04/24 11:36:36;;;;;;;6.35;1.25;;;10.30;99.90;;;;;;5092631;27;20512;-47
2023/04/24 11:39:02;;;;;;;6.95;1.70;;;10.20;99.90;;;;;;5091701;27;20272;-47
2023/04/24 11:41:28;;;;;;;11.20;1.83;;;10.00;99.90;;;;;;5093475;27;20055;-47
2023/04/24 11:43:56;;;;;;;6.78;2.17;;;9.90;99.90;;;;;;5094549;27;20039;-51
2023/04/24 11:46:22;;;;;;;5.65;1.70;;;9.80;99.90;;;;;;5075635;28;20078;-47
2023/04/24 11:48:48;;;;;;;5.25;1.38;;;9.50;99.90;;;;;;5074304;28;20471;-47
2023/04/24 11:51:14;;;;;;;7.95;1.75;;;9.50;99.90;;;;;;5093841;27;20122;-47
2023/04/24 11:53:40;;;;;;;8.10;1.40;;;9.40;99.90;;;;;;5095385;27;20554;-47
2023/04/24 11:56:06;;;;;;;5.72;1.42;;;9.30;99.90;;;;;;5096365;27;20077;-47
2023/04/24 11:58:39;;;;;;;4.05;1.23;;;9.20;99.90;;;;;;5095244;27;20093;-49
2023/04/24 12:01:05;;;;;;;7.10;1.50;;;9.40;99.90;;;;;;5095475;27;20484;-48
2023/04/24 12:03:31;;;;;;;7.53;1.42;;;9.30;99.90;;;;;;5093439;27;20602;-48
2023/04/24 12:06:10;;;;;;;6.72;1.20;;;9.60;99.90;;;;;;5094340;27;20046;-49
2023/04/24 12:08:37;;;;;;;10.35;1.40;;;9.90;99.90;;;;;;5092942;27;20066;-47
2023/04/24 12:11:08;;;;;;;6.50;1.42;;;9.90;99.90;;;;;;5094435;27;20047;-51
2023/04/24 12:13:36;;;;;;;9.13;1.17;;;10.10;99.90;;;;;;5094752;27;20618;-47
2023/04/24 12:16:04;;;;;;;5.70;1.05;;;10.10;99.90;;;;;;5076653;28;20039;-48
2023/04/24 12:18:30;;;;;;;3.53;0.93;;;10.30;99.90;;;;;;5094732;27;20044;-48
2023/04/24 12:21:15;;;;;;;4.47;0.90;;;11.00;99.90;;;;;;5077219;27;20095;-48
2023/04/24 12:23:43;;;;;;;7.82;1.25;;;10.20;99.90;;;;;;5096984;27;20051;-49
2023/04/24 12:26:09;;;;;;;5.45;1.40;;;10.20;99.90;;;;;;5095194;27;20046;-50
2023/04/24 12:28:36;;;;;;;4.13;1.00;;;10.40;99.90;;;;;;5094492;27;20043;-48
2023/04/24 12:31:02;;;;;;;10.98;2.17;;;10.20;99.90;;;;;;5095244;27;20050;-50
2023/04/24 12:33:33;;;;;;;5.50;1.10;;;10.10;99.90;;;;;;5094989;27;20043;-48
2023/04/24 12:35:59;;;;;;;5.25;1.00;;;10.20;99.90;;;;;;5094832;28;20120;-50
2023/04/24 12:38:26;;;;;;;8.15;2.33;;;10.20;99.90;;;;;;5092888;27;20051;-49
2023/04/24 12:41:10;;;;;;;8.57;1.30;;;10.30;99.90;;;;;;5094179;27;20056;-49
2023/04/24 12:43:36;;;;;;;4.70;1.10;;;10.40;99.90;;;;;;5094420;27;20652;-49
2023/04/24 12:46:03;;;;;;;8.27;1.88;;;10.50;99.90;;;;;;5094044;27;20027;-52
2023/04/24 12:48:29;;;;;;;7.50;1.30;;;10.20;99.90;;;;;;5075987;28;20051;-49
2023/04/24 12:51:00;;;;;;;7.72;2.20;;;10.20;99.90;;;;;;5094009;27;20605;-51